Time;durP1;ratioP1;P1;durP2;ratioP2;P2;SDS_P1;SDS_P2;PMS_P1;PMS_P2;Temp;Humidity;BMP_temperature;BMP_pressure;BME280_temperature;BME280_humidity;BME280_pressure;Samples;Min_cycle;Max_cycle;Signal;HPM_P1;HPM_P2
2023/06/25 00:03:14;;;;;;;6.38;4.63;;;20.50;1.00;;;;;;20582098;28;20038;-42
2023/06/25 00:13:35;;;;;;;6.95;4.93;;;20.40;1.00;;;;;;20580556;28;20054;-40
2023/06/25 00:23:56;;;;;;;7.63;5.57;;;20.20;1.00;;;;;;20585252;28;20058;-41
2023/06/25 00:34:19;;;;;;;6.43;5.38;;;20.10;1.00;;;;;;20572928;28;20042;-41
2023/06/25 00:44:40;;;;;;;7.72;5.90;;;20.10;1.00;;;;;;20594306;28;20038;-40
2023/06/25 00:55:02;;;;;;;9.00;5.82;;;20.00;1.00;;;;;;20579320;28;20980;-41
2023/06/25 01:05:29;;;;;;;10.02;6.75;;;19.90;1.00;;;;;;20574877;28;20058;-42
2023/06/25 01:15:50;;;;;;;10.57;7.38;;;19.90;1.00;;;;;;20590767;28;20073;-42
2023/06/25 01:26:11;;;;;;;11.82;7.93;;;19.90;1.00;;;;;;20584969;28;20053;-42
2023/06/25 01:36:39;;;;;;;11.82;7.70;;;19.90;1.00;;;;;;20576184;28;20046;-41
2023/06/25 01:47:00;;;;;;;10.80;7.15;;;19.90;1.00;;;;;;20581146;28;20040;-41
2023/06/25 01:57:22;;;;;;;14.43;7.97;;;19.80;1.00;;;;;;20574023;28;20530;-40
2023/06/25 02:07:43;;;;;;;11.35;8.57;;;19.70;1.00;;;;;;20566765;28;20046;-42
2023/06/25 02:18:04;;;;;;;12.98;8.50;;;19.70;1.00;;;;;;20558300;28;20518;-41
2023/06/25 02:28:26;;;;;;;15.95;9.38;;;19.60;1.00;;;;;;20566554;28;20061;-41
2023/06/25 02:38:48;;;;;;;15.10;9.40;;;19.50;1.00;;;;;;21406369;23;20061;-85
2023/06/25 02:49:09;;;;;;;13.77;9.15;;;19.40;1.00;;;;;;20594118;28;20041;-86
2023/06/25 02:59:30;;;;;;;16.65;9.73;;;19.40;1.00;;;;;;20603380;28;20420;-87
2023/06/25 03:09:52;;;;;;;13.77;9.57;;;19.30;1.00;;;;;;20618291;28;20046;-86
2023/06/25 03:20:13;;;;;;;13.70;9.63;;;19.20;1.00;;;;;;20601459;28;20089;-83
2023/06/25 03:30:34;;;;;;;14.55;8.90;;;19.20;1.00;;;;;;20633417;28;20038;-86
2023/06/25 03:40:56;;;;;;;15.30;9.40;;;19.10;1.00;;;;;;20638539;28;20058;-86
2023/06/25 03:51:17;;;;;;;14.55;9.68;;;19.10;1.00;;;;;;20625742;28;20053;-85
2023/06/25 04:01:38;;;;;;;13.45;8.80;;;19.00;1.00;;;;;;20628317;28;20030;-86
2023/06/25 04:12:00;;;;;;;11.65;8.25;;;18.90;4.80;;;;;;20645298;28;20053;-85
2023/06/25 04:22:21;;;;;;;13.88;9.63;;;18.80;9.10;;;;;;20635533;28;20039;-81
2023/06/25 04:32:42;;;;;;;14.02;9.38;;;18.80;12.30;;;;;;20623537;28;20042;-84
2023/06/25 04:43:04;;;;;;;12.65;9.25;;;18.90;22.80;;;;;;20609388;28;20295;-84
2023/06/25 04:53:26;;;;;;;15.07;10.15;;;19.00;24.00;;;;;;20589120;28;20030;-83
2023/06/25 05:03:48;;;;;;;13.15;9.30;;;19.20;17.60;;;;;;20620951;28;20042;-81
2023/06/25 05:14:09;;;;;;;12.48;8.65;;;19.50;3.60;;;;;;20627875;28;20041;-80
2023/06/25 05:24:32;;;;;;;12.65;9.73;;;19.70;1.00;;;;;;20624840;28;20033;-80
2023/06/25 05:34:53;;;;;;;13.02;9.13;;;20.20;1.00;;;;;;20604777;28;20054;-83
2023/06/25 05:45:14;;;;;;;10.88;7.53;;;20.60;1.00;;;;;;20611890;28;20042;-80
2023/06/25 05:55:36;;;;;;;11.65;7.82;;;20.80;1.00;;;;;;20616575;28;20042;-80
2023/06/25 06:05:57;;;;;;;10.15;6.75;;;21.10;1.00;;;;;;20616676;28;20031;-82
2023/06/25 06:16:19;;;;;;;8.98;6.50;;;21.40;1.00;;;;;;20622841;28;20710;-80
2023/06/25 06:26:40;;;;;;;9.35;6.50;;;22.10;1.00;;;;;;20651103;28;20042;-81
2023/06/25 06:37:02;;;;;;;9.68;5.47;;;22.60;1.00;;;;;;20669711;28;20064;-83
2023/06/25 06:47:23;;;;;;;8.63;6.15;;;22.80;1.00;;;;;;20650674;28;20046;-84
2023/06/25 06:57:46;;;;;;;7.93;4.38;;;23.10;1.00;;;;;;20647944;28;20069;-84
2023/06/25 07:08:07;;;;;;;7.97;5.40;;;23.40;1.00;;;;;;20658417;28;20663;-84
2023/06/25 07:18:29;;;;;;;8.07;4.53;;;23.60;1.00;;;;;;20627213;28;20053;-83
2023/06/25 07:28:50;;;;;;;6.57;4.28;;;23.90;1.00;;;;;;20618299;28;20035;-84
2023/06/25 07:39:29;;;;;;;8.65;5.18;;;24.10;1.00;;;;;;20610875;28;20058;-82
2023/06/25 07:49:50;;;;;;;6.65;4.85;;;24.30;1.00;;;;;;20619951;28;20053;-81
2023/06/25 08:00:12;;;;;;;7.35;4.03;;;24.60;1.00;;;;;;20600956;28;20042;-82
2023/06/25 08:10:33;;;;;;;5.78;4.00;;;24.90;1.00;;;;;;20593505;28;20030;-84
2023/06/25 08:20:55;;;;;;;6.07;4.20;;;25.20;1.00;;;;;;20604155;23;20469;-40
2023/06/25 08:31:16;;;;;;;6.30;3.80;;;25.60;1.00;;;;;;20568551;28;20104;-40
2023/06/25 08:41:37;;;;;;;4.38;3.08;;;25.80;1.00;;;;;;20567054;28;21141;-40
2023/06/25 08:52:00;;;;;;;5.07;2.70;;;26.20;1.00;;;;;;20574181;28;20058;-38
2023/06/25 09:02:22;;;;;;;15.40;6.97;;;26.50;1.00;;;;;;20568833;28;20490;-38
2023/06/25 09:12:48;;;;;;;6.03;3.35;;;26.60;1.00;;;;;;20584585;28;20042;-38
2023/06/25 09:23:09;;;;;;;4.72;2.85;;;26.90;1.00;;;;;;20579207;28;20053;-38
2023/06/25 09:33:35;;;;;;;4.28;2.72;;;27.30;1.00;;;;;;20546004;28;20039;-39
2023/06/25 09:43:58;;;;;;;4.43;2.70;;;27.60;1.00;;;;;;20524700;28;20097;-39
2023/06/25 09:54:22;;;;;;;5.47;3.35;;;28.00;1.00;;;;;;20541393;28;20042;-39
2023/06/25 10:04:44;;;;;;;4.15;2.88;;;28.20;1.00;;;;;;20807022;23;20062;-83
2023/06/25 10:15:05;;;;;;;4.75;3.25;;;28.50;1.00;;;;;;20622419;28;20049;-82
2023/06/25 10:25:30;;;;;;;6.80;3.30;;;28.60;1.00;;;;;;20596116;28;20043;-83
2023/06/25 10:35:57;;;;;;;6.22;3.60;;;29.10;1.00;;;;;;20605831;28;20693;-86
2023/06/25 10:46:27;;;;;;;4.30;3.20;;;29.30;1.00;;;;;;20598444;28;20043;-85
2023/06/25 10:56:48;;;;;;;5.70;3.53;;;29.60;1.00;;;;;;20602487;28;20078;-82
2023/06/25 11:07:12;;;;;;;4.45;3.13;;;29.70;1.00;;;;;;20602824;28;20046;-84
2023/06/25 11:17:34;;;;;;;3.88;3.00;;;29.90;1.00;;;;;;20607594;28;20501;-83
2023/06/25 11:28:07;;;;;;;3.90;2.92;;;30.40;1.00;;;;;;20627967;28;20043;-83
2023/06/25 11:38:29;;;;;;;3.72;2.88;;;30.50;1.00;;;;;;20611754;28;20046;-84
2023/06/25 11:48:51;;;;;;;4.22;2.70;;;30.80;1.00;;;;;;20633929;28;20035;-83
2023/06/25 11:59:15;;;;;;;3.92;3.03;;;31.00;1.00;;;;;;20613065;28;20050;-84
2023/06/25 12:09:36;;;;;;;5.32;3.30;;;30.90;1.00;;;;;;20675904;28;20042;-85
2023/06/25 12:19:58;;;;;;;7.10;3.80;;;31.00;1.00;;;;;;20655405;28;20053;-85
2023/06/25 12:30:19;;;;;;;4.85;3.70;;;31.20;1.00;;;;;;20639022;28;20175;-85
2023/06/25 12:40:40;;;;;;;4.97;3.75;;;31.40;1.00;;;;;;20675384;28;20046;-85
2023/06/25 12:51:02;;;;;;;4.38;3.55;;;31.60;1.00;;;;;;20662482;28;20422;-82
2023/06/25 13:01:23;;;;;;;5.13;3.92;;;31.90;1.00;;;;;;20589501;28;21341;-80
2023/06/25 13:11:45;;;;;;;6.00;4.07;;;32.00;1.00;;;;;;20558709;28;20038;-79
2023/06/25 13:22:06;;;;;;;4.57;3.55;;;32.00;1.00;;;;;;20586956;28;20049;-82
2023/06/25 13:32:27;;;;;;;5.82;4.03;;;32.00;1.00;;;;;;20580434;28;20038;-86
2023/06/25 13:42:49;;;;;;;7.57;4.32;;;32.20;1.00;;;;;;20565448;28;20042;-81
2023/06/25 13:53:10;;;;;;;4.63;3.90;;;32.10;1.00;;;;;;20525071;28;20046;-82
2023/06/25 14:03:32;;;;;;;5.22;3.70;;;32.00;1.00;;;;;;20613733;28;20045;-85
2023/06/25 14:13:53;;;;;;;5.05;3.75;;;32.10;1.00;;;;;;20644897;28;20053;-86
2023/06/25 14:24:14;;;;;;;5.82;4.10;;;31.90;1.00;;;;;;20669079;28;20056;-84
2023/06/25 14:34:35;;;;;;;5.47;4.05;;;32.00;1.00;;;;;;20664675;28;20034;-83
2023/06/25 14:45:03;;;;;;;5.70;3.90;;;31.90;1.00;;;;;;20666145;28;20044;-88
2023/06/25 14:55:25;;;;;;;4.28;3.70;;;31.70;1.00;;;;;;20672822;28;20049;-87
2023/06/25 15:05:46;;;;;;;5.35;4.30;;;31.50;1.00;;;;;;20693071;28;20713;-85
2023/06/25 15:16:07;;;;;;;4.35;3.85;;;31.60;1.00;;;;;;20663047;28;20114;-82
2023/06/25 15:26:29;;;;;;;4.97;4.00;;;31.60;1.00;;;;;;20664156;28;20041;-84
2023/06/25 15:36:51;;;;;;;4.57;3.65;;;31.50;1.00;;;;;;20669258;28;20048;-80
2023/06/25 15:47:12;;;;;;;6.32;4.05;;;31.40;1.00;;;;;;20737729;28;20045;-80
2023/06/25 15:57:34;;;;;;;5.20;4.07;;;31.30;1.00;;;;;;20656045;23;20072;-39
2023/06/25 16:07:55;;;;;;;5.03;3.75;;;31.50;1.00;;;;;;20649016;28;20046;-39
2023/06/25 16:18:16;;;;;;;5.85;4.13;;;31.30;1.00;;;;;;20665277;28;20139;-39
2023/06/25 16:28:39;;;;;;;5.63;4.22;;;31.10;1.00;;;;;;20665857;28;20513;-39
2023/06/25 16:39:00;;;;;;;5.45;3.83;;;31.00;1.00;;;;;;20680326;28;20823;-39
2023/06/25 16:49:21;;;;;;;6.43;3.83;;;30.90;1.00;;;;;;20679576;28;20045;-40
2023/06/25 16:59:43;;;;;;;4.93;4.25;;;30.90;1.00;;;;;;20657292;28;20041;-39
2023/06/25 17:10:05;;;;;;;5.28;4.50;;;30.80;1.00;;;;;;20694308;28;20508;-39
2023/06/25 17:20:26;;;;;;;5.78;3.90;;;30.70;1.00;;;;;;20668835;28;20136;-39
2023/06/25 17:30:48;;;;;;;7.03;4.10;;;30.60;1.00;;;;;;20651732;28;20168;-39
2023/06/25 17:41:09;;;;;;;5.95;3.95;;;30.40;1.00;;;;;;20696730;28;20029;-39
2023/06/25 17:51:30;;;;;;;4.40;4.00;;;30.30;1.00;;;;;;20703739;28;20080;-39
2023/06/25 18:01:53;;;;;;;5.47;4.03;;;30.20;1.00;;;;;;20694675;28;20045;-39
2023/06/25 18:12:15;;;;;;;5.35;4.20;;;30.10;1.00;;;;;;20689456;28;20030;-39
2023/06/25 18:22:38;;;;;;;5.10;3.80;;;30.10;1.00;;;;;;20723743;28;20718;-39
2023/06/25 18:32:59;;;;;;;4.50;3.97;;;29.90;1.00;;;;;;20732963;28;20033;-40
2023/06/25 18:43:21;;;;;;;6.85;4.35;;;29.80;1.00;;;;;;20716580;28;20041;-39
2023/06/25 18:53:42;;;;;;;4.78;3.47;;;29.70;1.00;;;;;;20723989;28;20121;-39
2023/06/25 19:04:06;;;;;;;4.43;3.70;;;29.50;1.00;;;;;;20716197;28;20049;-39
2023/06/25 19:14:27;;;;;;;7.10;3.70;;;29.50;1.00;;;;;;20722183;28;20125;-39
2023/06/25 19:24:49;;;;;;;7.53;4.40;;;29.30;1.00;;;;;;20715603;28;20041;-39
2023/06/25 19:35:10;;;;;;;6.43;3.75;;;29.10;1.00;;;;;;20723934;28;20033;-39
2023/06/25 19:45:32;;;;;;;4.60;3.63;;;29.00;1.00;;;;;;20694171;28;20527;-39
2023/06/25 19:55:53;;;;;;;4.28;3.67;;;28.90;1.00;;;;;;20626277;28;20551;-40
2023/06/25 20:06:14;;;;;;;5.25;3.60;;;28.70;1.00;;;;;;20651088;28;20129;-40
2023/06/25 20:16:36;;;;;;;3.60;3.10;;;28.40;1.00;;;;;;20660486;28;20061;-39
2023/06/25 20:26:58;;;;;;;4.60;3.88;;;28.10;1.00;;;;;;20678722;28;20871;-39
2023/06/25 20:37:20;;;;;;;6.68;3.75;;;27.90;1.00;;;;;;20678853;28;20140;-40
2023/06/25 20:47:41;;;;;;;5.10;3.70;;;27.80;1.00;;;;;;20654662;28;20612;-40
2023/06/25 20:58:02;;;;;;;5.50;3.88;;;27.50;1.00;;;;;;20661688;28;20137;-39
2023/06/25 21:08:24;;;;;;;5.20;4.00;;;27.40;1.00;;;;;;20666595;28;20669;-40
2023/06/25 21:18:45;;;;;;;6.00;4.03;;;27.30;1.00;;;;;;20676855;28;20052;-39
2023/06/25 21:29:06;;;;;;;5.07;4.00;;;27.20;1.00;;;;;;20674710;28;20042;-39
2023/06/25 21:39:28;;;;;;;5.05;4.05;;;27.20;1.00;;;;;;20681189;28;20041;-39
2023/06/25 21:49:49;;;;;;;5.50;3.80;;;26.80;1.00;;;;;;20698353;28;20503;-39
2023/06/25 22:00:11;;;;;;;5.70;4.55;;;26.50;1.00;;;;;;20667325;28;20156;-40
2023/06/25 22:10:33;;;;;;;5.35;4.15;;;26.20;1.00;;;;;;20643142;28;20045;-40
2023/06/25 22:20:54;;;;;;;5.93;4.75;;;26.20;1.00;;;;;;20657026;28;20490;-39
2023/06/25 22:31:17;;;;;;;5.25;4.47;;;26.00;1.00;;;;;;20653820;28;20125;-39
2023/06/25 22:41:38;;;;;;;6.20;4.70;;;25.90;1.00;;;;;;20648208;28;20038;-39
2023/06/25 22:52:01;;;;;;;8.05;4.90;;;25.80;1.00;;;;;;20646930;28;20328;-39
2023/06/25 23:02:22;;;;;;;6.05;5.00;;;25.70;1.00;;;;;;20639686;28;20137;-39
2023/06/25 23:12:43;;;;;;;6.82;5.03;;;25.70;1.00;;;;;;20652726;28;20069;-39
2023/06/25 23:23:06;;;;;;;6.07;4.88;;;25.70;1.00;;;;;;20656786;28;20073;-39
2023/06/25 23:33:29;;;;;;;7.38;5.03;;;25.60;1.00;;;;;;20650097;28;21023;-40
2023/06/25 23:43:50;;;;;;;5.22;4.72;;;25.50;1.00;;;;;;20664973;28;20302;-39
2023/06/25 23:54:11;;;;;;;6.43;5.60;;;25.40;1.00;;;;;;20654228;28;20045;-39
